Time;durP1;ratioP1;P1;durP2;ratioP2;P2;SDS_P1;SDS_P2;PMS_P1;PMS_P2;Temp;Humidity;BMP_temperature;BMP_pressure;BME280_temperature;BME280_humidity;BME280_pressure;Samples;Min_cycle;Max_cycle;Signal;HPM_P1;HPM_P2
2022/12/20 00:01:19;;;;;;;0.93;0.93;;;5.80;99.90;;;;;;5030110;28;20265;-63
2022/12/20 00:03:50;;;;;;;0.70;0.70;;;5.90;99.90;;;;;;5028916;28;20235;-64
2022/12/20 00:06:17;;;;;;;0.53;0.53;;;6.00;99.90;;;;;;5019374;28;20688;-63
2022/12/20 00:08:45;;;;;;;0.70;0.70;;;6.00;99.90;;;;;;5021829;28;20593;-64
2022/12/20 00:11:12;;;;;;;0.70;0.70;;;6.00;99.90;;;;;;5029158;28;20272;-63
2022/12/20 00:13:39;;;;;;;0.90;0.90;;;6.00;99.90;;;;;;5020591;28;20201;-63
2022/12/20 00:16:08;;;;;;;0.67;0.67;;;6.00;99.90;;;;;;5025274;28;20304;-63
2022/12/20 00:18:36;;;;;;;0.70;0.70;;;6.10;99.90;;;;;;5023181;28;20284;-62
2022/12/20 00:21:07;;;;;;;0.77;0.77;;;6.00;99.90;;;;;;5023030;28;20224;-62
2022/12/20 00:23:34;;;;;;;0.90;0.90;;;6.00;99.90;;;;;;5021774;28;20249;-63
2022/12/20 00:26:03;;;;;;;0.70;0.70;;;5.90;99.90;;;;;;5024863;28;20229;-63
2022/12/20 00:28:30;;;;;;;0.60;0.60;;;5.90;99.90;;;;;;5018541;28;20228;-63
2022/12/20 00:30:57;;;;;;;0.80;0.80;;;5.90;99.90;;;;;;5026415;28;20737;-63
2022/12/20 00:33:24;;;;;;;0.73;0.70;;;6.00;99.90;;;;;;5024886;28;20221;-63
2022/12/20 00:35:51;;;;;;;0.77;0.77;;;6.00;99.90;;;;;;5021008;28;20208;-63
2022/12/20 00:38:19;;;;;;;0.70;0.70;;;6.10;99.90;;;;;;5021357;28;20225;-63
2022/12/20 00:40:46;;;;;;;0.70;0.70;;;6.20;99.90;;;;;;5021290;28;20705;-64
2022/12/20 00:43:12;;;;;;;0.77;0.77;;;6.10;99.90;;;;;;5020176;28;20697;-64
2022/12/20 00:45:39;;;;;;;0.70;0.70;;;6.10;99.90;;;;;;5020218;28;20206;-64
2022/12/20 00:48:06;;;;;;;0.53;0.53;;;6.10;99.90;;;;;;5019434;28;20217;-64
2022/12/20 00:50:33;;;;;;;0.70;0.70;;;6.10;99.90;;;;;;5020077;28;20296;-64
2022/12/20 00:53:00;;;;;;;0.70;0.70;;;6.00;99.90;;;;;;5019687;28;20197;-63
2022/12/20 00:55:28;;;;;;;0.60;0.60;;;6.00;99.90;;;;;;5020999;28;20243;-63
2022/12/20 00:57:55;;;;;;;0.80;0.80;;;6.00;99.90;;;;;;5020531;28;20229;-64
2022/12/20 01:00:22;;;;;;;0.83;0.80;;;6.00;99.90;;;;;;5021209;28;20648;-63
2022/12/20 01:02:48;;;;;;;0.87;0.87;;;6.00;99.90;;;;;;5020769;28;20201;-63
2022/12/20 01:05:15;;;;;;;0.70;0.70;;;6.00;99.90;;;;;;5022158;28;20216;-63
2022/12/20 01:07:42;;;;;;;0.80;0.80;;;6.00;99.90;;;;;;5017519;28;20208;-63
2022/12/20 01:10:10;;;;;;;0.50;0.50;;;6.10;99.90;;;;;;5016288;28;20297;-63
2022/12/20 01:12:39;;;;;;;0.60;0.60;;;6.10;99.90;;;;;;5015206;28;20201;-65
2022/12/20 01:15:07;;;;;;;0.67;0.67;;;6.10;99.90;;;;;;5016672;28;20202;-63
2022/12/20 01:17:34;;;;;;;0.70;0.70;;;6.10;99.90;;;;;;5024481;28;20205;-63
2022/12/20 01:20:01;;;;;;;0.70;0.70;;;6.10;99.90;;;;;;5021186;28;20323;-63
2022/12/20 01:22:28;;;;;;;0.63;0.63;;;6.20;99.90;;;;;;5018174;28;20224;-64
2022/12/20 01:24:54;;;;;;;0.57;0.57;;;6.20;99.90;;;;;;5015693;28;20225;-64
2022/12/20 01:27:21;;;;;;;0.70;0.70;;;6.10;99.90;;;;;;5013273;28;20201;-63
2022/12/20 01:29:50;;;;;;;0.70;0.70;;;6.10;99.90;;;;;;5013446;28;20714;-64
2022/12/20 01:32:17;;;;;;;0.80;0.80;;;6.10;99.90;;;;;;5012687;28;20205;-65
2022/12/20 01:34:44;;;;;;;0.67;0.67;;;6.10;99.90;;;;;;5013940;28;20205;-64
2022/12/20 01:37:10;;;;;;;0.60;0.60;;;6.20;99.90;;;;;;5011064;28;20202;-65
2022/12/20 01:39:37;;;;;;;0.60;0.60;;;6.20;99.90;;;;;;5013586;28;20231;-65
2022/12/20 01:42:05;;;;;;;0.40;0.40;;;6.30;99.90;;;;;;5013011;28;20672;-63
2022/12/20 01:44:54;;;;;;;0.80;0.80;;;6.50;99.90;;;;;;5010322;28;20307;-63
2022/12/20 01:47:21;;;;;;;0.77;0.77;;;6.40;99.90;;;;;;5010944;28;20280;-64
2022/12/20 01:49:50;;;;;;;0.70;0.70;;;6.40;99.90;;;;;;5007362;28;20246;-63
2022/12/20 01:52:20;;;;;;;0.80;0.80;;;6.30;99.90;;;;;;5010356;28;20215;-65
2022/12/20 01:54:51;;;;;;;1.00;0.70;;;6.20;99.90;;;;;;5010064;28;20206;-63
2022/12/20 01:57:21;;;;;;;0.97;0.60;;;6.20;99.90;;;;;;5012407;28;20209;-64
2022/12/20 01:59:50;;;;;;;0.70;0.70;;;6.20;99.90;;;;;;5007300;28;20229;-64
2022/12/20 02:02:18;;;;;;;0.80;0.80;;;6.20;99.90;;;;;;5012389;28;20639;-63
2022/12/20 02:04:45;;;;;;;0.57;0.57;;;6.20;99.90;;;;;;5010435;28;20620;-63
2022/12/20 02:07:16;;;;;;;0.60;0.60;;;6.20;99.90;;;;;;5011648;28;20213;-65
2022/12/20 02:09:43;;;;;;;0.63;0.63;;;6.30;99.90;;;;;;5012006;28;20225;-64
2022/12/20 02:12:14;;;;;;;0.60;0.60;;;6.30;99.90;;;;;;5011167;28;20219;-65
2022/12/20 02:14:58;;;;;;;0.70;0.70;;;6.30;99.90;;;;;;5010523;28;20579;-63
2022/12/20 02:17:40;;;;;;;0.57;0.57;;;6.30;99.90;;;;;;5011167;28;20219;-63
2022/12/20 02:20:45;;;;;;;0.53;0.53;;;6.30;99.90;;;;;;5002939;28;20658;-64
2022/12/20 02:23:46;;;;;;;0.40;0.40;;;6.40;99.90;;;;;;5001792;28;20915;-64
2022/12/20 02:26:30;;;;;;;0.70;0.70;;;6.50;99.90;;;;;;4974304;28;20208;-64
2022/12/20 02:29:18;;;;;;;0.60;0.60;;;6.50;99.90;;;;;;5008696;28;20312;-63
2022/12/20 02:31:50;;;;;;;0.40;0.40;;;6.50;99.90;;;;;;5009481;28;20201;-63
2022/12/20 02:34:20;;;;;;;0.50;0.50;;;6.60;99.90;;;;;;5010012;28;20206;-63
2022/12/20 02:36:47;;;;;;;0.60;0.60;;;6.60;99.90;;;;;;5010764;28;20208;-64
2022/12/20 02:39:16;;;;;;;0.60;0.60;;;6.60;99.90;;;;;;5010059;28;20229;-63
2022/12/20 02:41:48;;;;;;;0.60;0.60;;;6.70;99.90;;;;;;5010522;28;20201;-64
2022/12/20 02:47:22;;;;;;;0.67;0.67;;;6.70;99.90;;;;;;4968045;28;20213;-63
2022/12/20 02:49:51;;;;;;;0.80;0.80;;;6.60;99.90;;;;;;4974531;28;20313;-63
2022/12/20 02:52:20;;;;;;;0.60;0.60;;;6.70;99.90;;;;;;4985418;28;20216;-63
2022/12/20 02:54:47;;;;;;;0.60;0.60;;;6.60;99.90;;;;;;5012774;28;20200;-63
2022/12/20 02:57:20;;;;;;;0.80;0.80;;;6.60;99.90;;;;;;5013908;28;20581;-65
2022/12/20 02:59:54;;;;;;;0.60;0.60;;;6.60;99.90;;;;;;5011083;28;20217;-64
2022/12/20 03:02:23;;;;;;;0.37;0.37;;;6.60;99.90;;;;;;5009250;28;20296;-65
2022/12/20 03:04:49;;;;;;;0.70;0.70;;;6.60;99.90;;;;;;5010904;28;20221;-65
2022/12/20 03:07:16;;;;;;;0.60;0.60;;;6.60;99.90;;;;;;5012444;28;20198;-63
2022/12/20 03:09:44;;;;;;;0.50;0.50;;;6.70;99.90;;;;;;5010343;28;20622;-63
2022/12/20 03:12:13;;;;;;;0.60;0.60;;;6.70;99.90;;;;;;5010245;28;20213;-64
2022/12/20 03:14:40;;;;;;;0.53;0.53;;;6.60;99.90;;;;;;5009925;28;20208;-64
2022/12/20 03:17:07;;;;;;;0.50;0.50;;;6.60;99.90;;;;;;5011389;28;20213;-64
2022/12/20 03:19:36;;;;;;;0.60;0.60;;;6.60;99.90;;;;;;5010059;28;20228;-63
2022/12/20 03:22:02;;;;;;;0.50;0.50;;;6.60;99.90;;;;;;5010410;28;20296;-63
2022/12/20 03:24:29;;;;;;;1.33;0.90;;;6.70;99.90;;;;;;5012724;28;20232;-64
2022/12/20 03:26:56;;;;;;;0.80;0.80;;;6.60;99.90;;;;;;5014579;28;20208;-63
2022/12/20 03:29:23;;;;;;;0.87;0.87;;;6.70;99.90;;;;;;5014260;28;20329;-65
2022/12/20 03:31:50;;;;;;;0.70;0.70;;;6.60;99.90;;;;;;5016074;28;20202;-64
2022/12/20 03:34:16;;;;;;;0.60;0.60;;;6.80;99.90;;;;;;5024198;28;20229;-64
2022/12/20 03:36:45;;;;;;;0.60;0.60;;;6.60;99.90;;;;;;5018922;28;20289;-65
2022/12/20 03:39:11;;;;;;;0.70;0.70;;;6.60;99.90;;;;;;5005839;28;20225;-63
2022/12/20 03:41:38;;;;;;;0.83;0.80;;;6.60;99.90;;;;;;5013053;28;20209;-63
2022/12/20 03:44:05;;;;;;;0.50;0.50;;;6.80;99.90;;;;;;5017395;28;20293;-63
2022/12/20 03:46:32;;;;;;;0.60;0.60;;;6.90;99.90;;;;;;5022342;28;20227;-65
2022/12/20 03:48:59;;;;;;;0.60;0.60;;;7.00;99.90;;;;;;5018664;28;20225;-64
2022/12/20 03:51:26;;;;;;;0.53;0.53;;;6.90;99.90;;;;;;5015157;28;20627;-64
2022/12/20 03:53:54;;;;;;;1.10;0.93;;;6.90;99.90;;;;;;5014077;28;20281;-63
2022/12/20 03:56:20;;;;;;;0.70;0.70;;;6.80;99.90;;;;;;5016722;28;20223;-64
2022/12/20 03:58:48;;;;;;;0.80;0.80;;;6.80;99.90;;;;;;5013981;28;20241;-64
2022/12/20 04:01:22;;;;;;;0.70;0.70;;;6.90;99.90;;;;;;5011897;28;20209;-64
2022/12/20 04:03:50;;;;;;;0.70;0.70;;;6.80;99.90;;;;;;5011443;28;20294;-64
2022/12/20 04:06:17;;;;;;;0.63;0.63;;;6.80;99.90;;;;;;5010766;28;20299;-63
2022/12/20 04:08:45;;;;;;;0.70;0.70;;;6.70;99.90;;;;;;5012855;28;20232;-64
2022/12/20 04:11:16;;;;;;;0.70;0.70;;;6.70;99.90;;;;;;5012121;28;20666;-64
2022/12/20 04:13:44;;;;;;;0.70;0.70;;;6.70;99.90;;;;;;5012724;28;20330;-64
2022/12/20 04:16:11;;;;;;;0.80;0.80;;;6.70;99.90;;;;;;5014096;28;20230;-64
2022/12/20 04:18:38;;;;;;;0.60;0.60;;;6.80;99.90;;;;;;5013286;28;20225;-62
2022/12/20 04:21:06;;;;;;;0.60;0.60;;;6.90;99.90;;;;;;5011976;28;20201;-64
2022/12/20 04:23:33;;;;;;;0.70;0.70;;;6.90;99.90;;;;;;5011711;28;20213;-62
2022/12/20 04:26:01;;;;;;;0.60;0.60;;;6.90;99.90;;;;;;5013141;28;20248;-63
2022/12/20 04:28:30;;;;;;;0.60;0.60;;;7.10;99.90;;;;;;5009037;28;20702;-63
2022/12/20 04:30:57;;;;;;;0.50;0.50;;;6.90;99.90;;;;;;5012407;28;20208;-64
2022/12/20 04:33:25;;;;;;;0.60;0.60;;;7.00;99.90;;;;;;5014920;28;20300;-64
2022/12/20 04:35:52;;;;;;;0.60;0.60;;;7.10;99.90;;;;;;5014617;28;20193;-63
2022/12/20 04:38:19;;;;;;;0.70;0.70;;;7.10;99.90;;;;;;5013037;28;20227;-64
2022/12/20 04:40:48;;;;;;;0.70;0.70;;;7.10;99.90;;;;;;5015490;28;20654;-64
2022/12/20 04:43:15;;;;;;;0.70;0.70;;;7.10;99.90;;;;;;5013925;28;20259;-64
2022/12/20 04:45:43;;;;;;;0.63;0.63;;;7.10;99.90;;;;;;5014717;28;20213;-64
2022/12/20 04:48:10;;;;;;;0.67;0.67;;;7.10;99.90;;;;;;5014638;28;20641;-63
2022/12/20 04:50:37;;;;;;;0.60;0.60;;;7.10;99.90;;;;;;5015251;28;20202;-64
2022/12/20 04:55:49;;;;;;;0.90;0.90;;;7.30;99.90;;;;;;5014238;28;20216;-64
2022/12/20 04:58:16;;;;;;;0.73;0.73;;;7.20;99.90;;;;;;5015646;28;20311;-63
2022/12/20 05:00:44;;;;;;;0.60;0.60;;;7.30;99.90;;;;;;5013817;28;20206;-64
2022/12/20 05:03:11;;;;;;;0.90;0.90;;;7.30;99.90;;;;;;5012643;28;20202;-63
2022/12/20 05:05:37;;;;;;;1.30;1.07;;;7.30;99.90;;;;;;5013839;28;20308;-64
2022/12/20 05:08:05;;;;;;;0.87;0.87;;;7.30;99.90;;;;;;5014472;28;20233;-63
2022/12/20 05:10:32;;;;;;;0.80;0.80;;;7.30;99.90;;;;;;5014273;28;20213;-63
2022/12/20 05:12:59;;;;;;;0.70;0.70;;;7.30;99.90;;;;;;5010732;28;20225;-63
2022/12/20 05:15:26;;;;;;;0.70;0.70;;;7.30;99.90;;;;;;5012827;28;20339;-63
2022/12/20 05:17:59;;;;;;;0.80;0.80;;;7.30;99.90;;;;;;5010691;28;20205;-64
2022/12/20 05:20:26;;;;;;;0.60;0.60;;;7.30;99.90;;;;;;5014099;28;20303;-63
2022/12/20 05:28:23;;;;;;;0.70;0.70;;;7.30;99.90;;;;;;5012179;28;20240;-63
2022/12/20 05:30:50;;;;;;;0.80;0.80;;;7.30;99.90;;;;;;5009681;28;20744;-63
2022/12/20 05:33:18;;;;;;;0.70;0.70;;;7.30;99.90;;;;;;5013380;28;20244;-64
2022/12/20 05:35:45;;;;;;;0.70;0.70;;;7.30;99.90;;;;;;5008018;28;20267;-64
2022/12/20 05:38:12;;;;;;;0.57;0.57;;;7.30;99.90;;;;;;5011213;28;20225;-64
2022/12/20 05:40:40;;;;;;;0.90;0.90;;;7.30;99.90;;;;;;5012466;28;20220;-63
2022/12/20 05:43:07;;;;;;;0.80;0.80;;;7.40;99.90;;;;;;5011293;28;20288;-63
2022/12/20 05:45:34;;;;;;;0.70;0.70;;;7.40;99.90;;;;;;5024051;28;20285;-64
2022/12/20 05:48:02;;;;;;;0.73;0.73;;;7.30;99.90;;;;;;5020466;28;20198;-64
2022/12/20 05:50:30;;;;;;;0.67;0.67;;;7.30;99.90;;;;;;5011186;28;20219;-63
2022/12/20 05:52:57;;;;;;;0.60;0.60;;;7.30;99.90;;;;;;5009302;28;20213;-64
2022/12/20 05:55:24;;;;;;;0.70;0.70;;;7.30;99.90;;;;;;5011048;28;20220;-63
2022/12/20 05:57:50;;;;;;;0.73;0.73;;;7.40;99.90;;;;;;5010214;28;20211;-64
2022/12/20 06:00:17;;;;;;;0.70;0.70;;;7.40;99.90;;;;;;5007998;28;20577;-62
2022/12/20 06:02:44;;;;;;;0.80;0.80;;;7.40;99.90;;;;;;5009599;28;20209;-63
2022/12/20 06:05:11;;;;;;;0.87;0.87;;;7.30;99.90;;;;;;5011513;28;20223;-65
2022/12/20 06:07:40;;;;;;;0.80;0.80;;;7.20;99.90;;;;;;5011268;28;20205;-64
2022/12/20 06:10:08;;;;;;;0.90;0.90;;;7.20;99.90;;;;;;5012625;28;20253;-62
2022/12/20 06:12:35;;;;;;;0.80;0.80;;;7.30;99.90;;;;;;5006819;28;20227;-63
2022/12/20 06:15:01;;;;;;;1.43;1.00;;;7.30;99.90;;;;;;5007919;28;20219;-63
2022/12/20 06:17:28;;;;;;;0.70;0.70;;;7.40;99.90;;;;;;5011551;28;20213;-63
2022/12/20 06:19:55;;;;;;;1.00;1.00;;;7.40;99.90;;;;;;5011394;28;20758;-63
2022/12/20 06:22:22;;;;;;;1.00;1.00;;;7.40;99.90;;;;;;5011071;28;20252;-63
2022/12/20 06:24:50;;;;;;;0.90;0.90;;;7.50;99.90;;;;;;5011462;28;20221;-63
2022/12/20 06:27:20;;;;;;;0.77;0.77;;;7.50;99.90;;;;;;5014473;28;20296;-62
2022/12/20 06:29:50;;;;;;;1.13;0.93;;;7.50;99.90;;;;;;5014830;28;20828;-62
2022/12/20 06:32:17;;;;;;;0.67;0.67;;;7.50;99.90;;;;;;5013673;28;20210;-62
2022/12/20 06:34:44;;;;;;;0.80;0.80;;;7.50;99.90;;;;;;5013782;28;20707;-63
2022/12/20 06:37:11;;;;;;;0.83;0.83;;;7.50;99.90;;;;;;5013547;28;20203;-63
2022/12/20 06:39:38;;;;;;;1.10;1.10;;;7.50;99.90;;;;;;5012821;28;20592;-63
2022/12/20 06:42:06;;;;;;;0.77;0.77;;;7.50;99.90;;;;;;5013166;28;20205;-63
2022/12/20 06:44:33;;;;;;;0.80;0.80;;;7.50;99.90;;;;;;5013074;28;20742;-62
2022/12/20 06:47:00;;;;;;;0.80;0.80;;;7.40;99.90;;;;;;5013514;28;20212;-63
2022/12/20 06:49:27;;;;;;;1.00;1.00;;;7.40;99.90;;;;;;5013084;28;20247;-62
2022/12/20 06:51:54;;;;;;;0.77;0.77;;;7.40;99.90;;;;;;5017482;28;20197;-63
2022/12/20 06:54:21;;;;;;;1.00;1.00;;;7.30;99.90;;;;;;5018151;28;20645;-64
2022/12/20 06:56:47;;;;;;;0.80;0.80;;;7.30;99.90;;;;;;5018835;28;20205;-63
2022/12/20 06:59:16;;;;;;;0.80;0.80;;;7.40;99.90;;;;;;5019661;28;20263;-64
2022/12/20 07:01:43;;;;;;;0.97;0.97;;;7.40;99.90;;;;;;5019020;28;20244;-64
2022/12/20 07:04:10;;;;;;;0.90;0.90;;;7.30;99.90;;;;;;5016430;28;20271;-63
2022/12/20 07:06:37;;;;;;;1.00;1.00;;;7.30;99.90;;;;;;5017716;28;20231;-63
2022/12/20 07:09:04;;;;;;;0.90;0.90;;;7.30;99.90;;;;;;5017346;28;20721;-62
2022/12/20 07:11:31;;;;;;;1.00;1.00;;;7.30;99.90;;;;;;5016340;28;20207;-62
2022/12/20 07:13:58;;;;;;;0.87;0.87;;;7.30;99.90;;;;;;5017822;28;20213;-64
2022/12/20 07:16:26;;;;;;;1.00;1.00;;;7.40;99.90;;;;;;5018513;28;20296;-64
2022/12/20 07:18:54;;;;;;;1.13;1.10;;;7.40;99.90;;;;;;5018543;28;20217;-64
2022/12/20 07:21:21;;;;;;;1.40;1.30;;;7.40;99.90;;;;;;5018463;28;20205;-62
2022/12/20 07:23:48;;;;;;;1.83;1.03;;;7.40;99.90;;;;;;5017800;28;20554;-63
2022/12/20 07:26:15;;;;;;;1.20;1.20;;;7.50;99.90;;;;;;5017417;28;20259;-64
2022/12/20 07:28:43;;;;;;;1.00;0.97;;;7.50;99.90;;;;;;5017990;28;20294;-65
2022/12/20 07:31:10;;;;;;;0.90;0.90;;;7.60;99.90;;;;;;5019440;28;20640;-63
2022/12/20 07:33:39;;;;;;;1.10;1.10;;;7.60;99.90;;;;;;5021145;28;20201;-63
2022/12/20 07:36:07;;;;;;;0.90;0.90;;;7.60;99.90;;;;;;5024763;28;20662;-64
2022/12/20 07:38:35;;;;;;;1.10;1.10;;;7.60;99.90;;;;;;5017943;28;20339;-63
2022/12/20 07:41:07;;;;;;;1.50;1.00;;;7.60;99.90;;;;;;5017673;28;20205;-65
2022/12/20 07:43:34;;;;;;;0.90;0.90;;;7.60;99.90;;;;;;5015625;28;20251;-62
2022/12/20 07:46:01;;;;;;;1.10;1.10;;;7.60;99.90;;;;;;5017231;28;20256;-62
2022/12/20 07:48:28;;;;;;;1.40;1.30;;;7.60;99.90;;;;;;5007775;28;20709;-64
2022/12/20 07:51:01;;;;;;;1.07;1.07;;;7.60;99.90;;;;;;5006792;28;20211;-63
2022/12/20 07:53:30;;;;;;;1.00;1.00;;;7.60;99.90;;;;;;5012642;28;20207;-64
2022/12/20 07:55:59;;;;;;;0.90;0.90;;;7.70;99.90;;;;;;5025071;28;20205;-64
2022/12/20 07:58:27;;;;;;;0.80;0.80;;;7.80;99.90;;;;;;5026519;28;20247;-63
2022/12/20 08:00:54;;;;;;;1.10;1.10;;;7.80;99.90;;;;;;5014834;28;20274;-63
2022/12/20 08:03:23;;;;;;;1.07;1.03;;;7.80;99.90;;;;;;5012661;28;20224;-63
2022/12/20 08:05:53;;;;;;;1.00;1.00;;;7.80;99.90;;;;;;5013430;28;20596;-62
2022/12/20 08:08:22;;;;;;;1.33;1.23;;;7.80;99.90;;;;;;5012913;28;20229;-63
2022/12/20 08:10:49;;;;;;;1.23;1.23;;;7.80;99.90;;;;;;5013234;28;20201;-63
2022/12/20 08:13:17;;;;;;;1.17;1.17;;;7.90;99.90;;;;;;5012206;28;20219;-62
2022/12/20 08:15:43;;;;;;;0.97;0.97;;;7.90;99.90;;;;;;5013675;28;20274;-63
2022/12/20 08:18:10;;;;;;;1.00;1.00;;;7.90;99.90;;;;;;5008411;28;20205;-64
2022/12/20 08:20:37;;;;;;;0.80;0.80;;;8.00;99.90;;;;;;5012564;28;20669;-65
2022/12/20 08:23:04;;;;;;;1.30;1.10;;;8.00;99.90;;;;;;5013238;28;20212;-64
2022/12/20 08:25:34;;;;;;;1.00;1.00;;;8.10;99.90;;;;;;5014465;28;20315;-62
2022/12/20 08:28:02;;;;;;;1.00;1.00;;;8.10;99.90;;;;;;5007181;28;20229;-62
2022/12/20 08:30:30;;;;;;;0.83;0.83;;;8.30;99.90;;;;;;5014294;28;20205;-61
2022/12/20 08:32:56;;;;;;;0.90;0.90;;;8.40;99.90;;;;;;5011502;28;20197;-63
2022/12/20 08:35:24;;;;;;;1.00;1.00;;;8.50;99.90;;;;;;5016345;28;20202;-63
2022/12/20 08:37:52;;;;;;;1.73;1.20;;;8.40;99.90;;;;;;5017636;28;20741;-62
2022/12/20 08:40:19;;;;;;;1.10;1.10;;;8.30;99.90;;;;;;5015766;28;20228;-64
2022/12/20 08:42:48;;;;;;;1.00;1.00;;;8.20;99.90;;;;;;5021068;28;20217;-64
2022/12/20 08:45:15;;;;;;;1.30;1.30;;;8.20;99.90;;;;;;5021306;28;20256;-64
2022/12/20 08:47:42;;;;;;;1.20;1.20;;;8.30;99.90;;;;;;5017226;28;20207;-65
2022/12/20 08:50:10;;;;;;;1.33;1.23;;;8.30;99.90;;;;;;5012264;28;20296;-64
2022/12/20 08:52:36;;;;;;;1.20;1.10;;;8.40;99.90;;;;;;5012809;28;20620;-64
2022/12/20 08:55:04;;;;;;;1.43;1.40;;;8.50;99.90;;;;;;5008081;28;20216;-64
2022/12/20 08:57:31;;;;;;;1.33;1.30;;;8.60;99.90;;;;;;5013219;28;20209;-64
2022/12/20 08:59:59;;;;;;;1.47;1.37;;;8.60;99.90;;;;;;5014247;28;20702;-65
2022/12/20 09:02:26;;;;;;;1.47;1.37;;;8.70;99.90;;;;;;5021296;28;20205;-64
2022/12/20 09:04:53;;;;;;;1.10;1.10;;;8.70;99.90;;;;;;5022726;28;20536;-65
2022/12/20 09:07:20;;;;;;;1.27;1.27;;;8.80;99.90;;;;;;5025140;28;20237;-65
2022/12/20 09:09:47;;;;;;;1.40;1.30;;;8.80;99.90;;;;;;5023650;28;20289;-64
2022/12/20 09:12:14;;;;;;;1.07;1.07;;;8.90;99.90;;;;;;5016726;28;20213;-64
2022/12/20 09:14:41;;;;;;;2.23;1.10;;;9.00;99.90;;;;;;5013511;28;20216;-64
2022/12/20 09:17:09;;;;;;;1.50;1.40;;;9.10;99.90;;;;;;5012651;28;20209;-64
2022/12/20 09:19:36;;;;;;;1.43;1.43;;;9.20;99.90;;;;;;5012055;28;20243;-63
2022/12/20 09:22:03;;;;;;;1.50;1.40;;;9.20;99.90;;;;;;5013119;28;20213;-64
2022/12/20 09:24:30;;;;;;;1.73;1.63;;;9.30;99.90;;;;;;5012488;28;20208;-64
2022/12/20 09:26:57;;;;;;;1.43;1.43;;;9.30;99.90;;;;;;5013293;28;20227;-64
2022/12/20 09:29:24;;;;;;;1.57;1.50;;;9.30;99.90;;;;;;5012998;28;20739;-64
2022/12/20 09:31:51;;;;;;;1.83;1.63;;;9.40;99.90;;;;;;5013488;28;20593;-64
2022/12/20 09:34:19;;;;;;;1.70;1.60;;;9.40;99.90;;;;;;5012644;28;20217;-65
2022/12/20 09:36:46;;;;;;;1.60;1.50;;;9.50;99.90;;;;;;5013108;28;20660;-64
2022/12/20 09:39:13;;;;;;;1.10;1.10;;;9.50;99.90;;;;;;5015555;28;20239;-63
2022/12/20 09:41:41;;;;;;;1.10;1.10;;;9.60;99.90;;;;;;5017073;28;20252;-63
2022/12/20 09:44:14;;;;;;;1.20;1.10;;;9.70;99.90;;;;;;5012510;28;20205;-64
2022/12/20 09:46:42;;;;;;;1.10;1.10;;;9.80;99.90;;;;;;5011772;28;20209;-65
2022/12/20 09:49:15;;;;;;;1.10;1.10;;;9.80;99.90;;;;;;5015334;28;20475;-65
2022/12/20 09:52:21;;;;;;;1.00;1.00;;;9.80;99.90;;;;;;5014878;28;20204;-64
2022/12/20 09:54:56;;;;;;;1.27;1.23;;;9.80;99.90;;;;;;5014326;28;20206;-64
2022/12/20 09:57:30;;;;;;;1.00;1.00;;;9.80;99.90;;;;;;5013822;28;20203;-64
2022/12/20 09:59:57;;;;;;;1.00;1.00;;;9.80;99.90;;;;;;5013547;28;20285;-64
2022/12/20 10:02:26;;;;;;;1.37;1.27;;;9.80;99.90;;;;;;5012798;28;20213;-64
2022/12/20 10:04:54;;;;;;;1.20;1.13;;;9.80;99.90;;;;;;5013631;28;20206;-64
2022/12/20 10:07:33;;;;;;;1.00;1.00;;;9.90;99.90;;;;;;5025448;28;20225;-64
2022/12/20 10:10:21;;;;;;;1.20;1.20;;;10.00;99.90;;;;;;5016318;28;20302;-64
2022/12/20 10:12:59;;;;;;;1.13;1.13;;;10.20;99.90;;;;;;5009248;28;20203;-63
2022/12/20 10:15:32;;;;;;;1.30;1.30;;;10.50;99.90;;;;;;5004100;28;20193;-63
2022/12/20 10:18:20;;;;;;;1.10;1.10;;;10.40;99.90;;;;;;5011090;28;20580;-64
2022/12/20 10:20:57;;;;;;;1.37;1.27;;;10.70;99.90;;;;;;5005651;28;20211;-64
2022/12/20 10:23:30;;;;;;;2.40;1.30;;;10.80;99.90;;;;;;5009821;28;20197;-64
2022/12/20 10:25:58;;;;;;;1.10;1.10;;;10.70;99.90;;;;;;5010641;28;20584;-64
2022/12/20 10:28:28;;;;;;;1.30;1.20;;;10.60;99.90;;;;;;5010986;28;20303;-63
2022/12/20 10:30:59;;;;;;;1.20;1.10;;;10.50;99.90;;;;;;5011714;28;20224;-65
2022/12/20 10:33:28;;;;;;;1.10;1.10;;;10.50;99.90;;;;;;5011345;28;20219;-64
2022/12/20 10:35:54;;;;;;;1.47;1.37;;;10.50;99.90;;;;;;5011711;28;20207;-64
2022/12/20 10:38:22;;;;;;;1.13;1.13;;;10.50;99.90;;;;;;5011461;28;20232;-64
2022/12/20 10:41:01;;;;;;;1.23;1.20;;;10.50;99.90;;;;;;5012240;28;20201;-64
2022/12/20 10:43:37;;;;;;;1.30;1.20;;;10.50;99.90;;;;;;5009514;28;20201;-63
2022/12/20 10:46:06;;;;;;;0.90;0.90;;;10.50;99.90;;;;;;5012026;28;20229;-65
2022/12/20 10:48:36;;;;;;;1.07;1.07;;;10.50;99.90;;;;;;5011739;28;20225;-64
2022/12/20 10:51:14;;;;;;;0.90;0.90;;;10.50;99.90;;;;;;5011676;28;20670;-65
2022/12/20 10:53:55;;;;;;;1.00;1.00;;;10.60;99.90;;;;;;5011020;28;20204;-64
2022/12/20 10:56:26;;;;;;;1.20;1.20;;;10.60;99.90;;;;;;5011157;28;20201;-64
2022/12/20 10:58:56;;;;;;;1.17;1.17;;;10.60;99.90;;;;;;5011585;28;20229;-64
2022/12/20 11:01:26;;;;;;;1.17;1.17;;;10.60;99.90;;;;;;5010119;28;20209;-65
2022/12/20 11:03:58;;;;;;;1.17;1.10;;;10.60;99.90;;;;;;5011284;28;20292;-64
2022/12/20 11:06:28;;;;;;;1.37;1.27;;;10.60;99.90;;;;;;5011289;28;20235;-65
2022/12/20 11:09:21;;;;;;;0.87;0.87;;;10.60;99.90;;;;;;5012563;28;20227;-65
2022/12/20 11:12:00;;;;;;;1.00;1.00;;;10.70;99.90;;;;;;5015941;28;20213;-65
2022/12/20 11:14:27;;;;;;;1.10;1.10;;;10.80;99.90;;;;;;5012484;28;20201;-64
2022/12/20 11:16:55;;;;;;;1.00;1.00;;;10.80;99.90;;;;;;5016238;28;20265;-64
2022/12/20 11:19:53;;;;;;;1.00;1.00;;;10.80;99.90;;;;;;5017151;28;20720;-65
2022/12/20 11:22:31;;;;;;;1.30;1.20;;;10.90;99.90;;;;;;5015556;28;20205;-65
2022/12/20 11:25:10;;;;;;;1.00;1.00;;;10.90;99.90;;;;;;5011701;28;20201;-64
2022/12/20 11:27:47;;;;;;;1.00;1.00;;;10.90;99.90;;;;;;5005146;28;20253;-64
2022/12/20 11:30:19;;;;;;;1.10;1.10;;;10.90;99.90;;;;;;5008537;28;20224;-65
2022/12/20 11:33:15;;;;;;;1.10;1.10;;;10.90;99.90;;;;;;5009434;28;20297;-65
2022/12/20 11:35:52;;;;;;;1.17;1.17;;;11.00;99.90;;;;;;5004631;28;20728;-65
2022/12/20 11:38:31;;;;;;;1.00;1.00;;;11.10;99.90;;;;;;5013933;28;20229;-64
2022/12/20 11:41:16;;;;;;;1.03;1.00;;;11.10;99.90;;;;;;5015046;28;20201;-65
2022/12/20 11:43:58;;;;;;;1.27;1.27;;;11.20;99.90;;;;;;5014346;28;20209;-64
2022/12/20 11:46:36;;;;;;;1.10;1.10;;;11.20;99.90;;;;;;5014795;28;20210;-64
2022/12/20 11:49:31;;;;;;;1.10;1.10;;;11.20;99.90;;;;;;5014999;28;20247;-64
2022/12/20 11:52:05;;;;;;;1.10;1.10;;;11.20;99.90;;;;;;5013476;28;20201;-65
2022/12/20 11:54:37;;;;;;;1.17;1.07;;;11.30;99.90;;;;;;5007214;28;20212;-64
2022/12/20 11:57:09;;;;;;;1.20;1.20;;;11.40;99.90;;;;;;5014435;28;20233;-65
2022/12/20 11:59:42;;;;;;;1.07;1.07;;;11.50;99.90;;;;;;5014454;28;20343;-64
2022/12/20 12:02:12;;;;;;;1.10;1.10;;;11.50;99.90;;;;;;5014506;28;20197;-64
2022/12/20 12:04:43;;;;;;;1.40;1.30;;;11.50;99.90;;;;;;5012949;28;20206;-65
2022/12/20 12:07:16;;;;;;;1.20;1.20;;;11.50;99.90;;;;;;5014367;28;20224;-64
2022/12/20 12:09:50;;;;;;;1.10;1.10;;;11.60;99.90;;;;;;5015521;28;20218;-64
2022/12/20 12:12:24;;;;;;;1.10;1.10;;;11.60;99.90;;;;;;5017047;28;20209;-63
2022/12/20 12:14:58;;;;;;;1.40;1.30;;;11.60;99.90;;;;;;5016189;28;20212;-64
2022/12/20 12:17:31;;;;;;;1.40;1.30;;;11.60;99.90;;;;;;5020244;28;20686;-64
2022/12/20 12:20:15;;;;;;;1.27;1.20;;;11.60;99.90;;;;;;5015144;28;20644;-64
2022/12/20 12:22:44;;;;;;;1.03;0.80;;;11.60;99.90;;;;;;5012812;28;20205;-64
2022/12/20 12:25:15;;;;;;;0.90;0.90;;;11.70;99.90;;;;;;5014972;28;20205;-64
2022/12/20 12:27:42;;;;;;;0.97;0.97;;;11.80;99.90;;;;;;5014838;28;20221;-64
2022/12/20 12:30:14;;;;;;;1.30;1.30;;;11.70;99.90;;;;;;5014600;28;20312;-64
2022/12/20 12:32:46;;;;;;;3.03;1.17;;;11.90;99.90;;;;;;5014703;28;20210;-63
2022/12/20 12:35:39;;;;;;;1.20;1.20;;;11.80;99.90;;;;;;5009275;28;20208;-64
2022/12/20 12:38:23;;;;;;;0.97;0.97;;;11.90;99.90;;;;;;5014007;28;20201;-65
2022/12/20 12:41:15;;;;;;;1.20;1.20;;;11.90;99.90;;;;;;5015677;28;20225;-65
2022/12/20 12:43:49;;;;;;;1.83;1.33;;;12.00;99.90;;;;;;4964011;28;20202;-65
2022/12/20 12:46:22;;;;;;;1.33;1.23;;;12.00;99.90;;;;;;5005677;28;20244;-64
2022/12/20 12:48:55;;;;;;;1.10;1.10;;;12.00;99.90;;;;;;5001388;28;20226;-63
2022/12/20 12:51:27;;;;;;;1.50;1.40;;;12.10;99.90;;;;;;5001472;28;20206;-64
2022/12/20 12:54:03;;;;;;;1.13;1.03;;;12.00;99.90;;;;;;5016170;28;20284;-64
2022/12/20 12:56:40;;;;;;;1.03;1.03;;;12.00;99.90;;;;;;5004924;28;20229;-65
2022/12/20 12:59:37;;;;;;;1.30;1.30;;;12.10;99.90;;;;;;5003904;28;20228;-65
2022/12/20 13:02:23;;;;;;;0.90;0.90;;;12.20;99.90;;;;;;4998850;28;20294;-64
2022/12/20 13:04:55;;;;;;;1.10;1.10;;;12.10;99.90;;;;;;5005027;28;20316;-64
2022/12/20 13:07:42;;;;;;;1.20;1.20;;;12.10;99.90;;;;;;5004971;28;20260;-64
2022/12/20 13:10:42;;;;;;;1.00;1.00;;;12.10;99.90;;;;;;5007711;28;20250;-63
2022/12/20 13:13:14;;;;;;;0.97;0.97;;;12.10;99.90;;;;;;5008382;28;20210;-64
2022/12/20 13:16:09;;;;;;;1.00;1.00;;;12.10;99.90;;;;;;5019772;28;20228;-65
2022/12/20 13:18:37;;;;;;;0.90;0.90;;;12.00;99.90;;;;;;5021737;28;20217;-65
2022/12/20 13:21:37;;;;;;;1.20;1.10;;;12.00;99.90;;;;;;5023414;28;20213;-64
2022/12/20 13:24:41;;;;;;;1.00;1.00;;;12.10;99.90;;;;;;5017070;28;20281;-65